Latest Weather Observations for Ocean Reef

IDW60901

Issued at 3:51 pm WST Tuesday 16 August 2022 (issued every 10 minutes, with the page automatically refreshed every 10 minutes)

About weather observations | Map of Perth area stations | Latest observations for Perth area | Other Formats
Station Details ID: 009214 Name: OCEAN REEF Lat: -31.76 Lon: 115.73 Height: 10.0 m
Data from the previous 72 hours. | See also: Recent months at Ocean Reef
Date/Time
WST
Temp
°C
App
Temp
°C
Dew
Point
°C
Rel
Hum
%
Delta-T
°C
Wind Press
QNH
hPa
Press
MSL
hPa
Rain since
9am
mm
Dir  Spd
km/h
Gust
km/h
Spd
kts
Gust
kts
16/03:30pm - - - - - WNW 44 56 24 30 - - -
16/03:00pm - - - - - WNW 43 52 23 28 - - -
16/02:49pm - - - - - WNW 39 57 21 31 - - -
16/02:30pm - - - - - W 43 52 23 28 - - -
16/02:15pm - - - - - WNW 39 57 21 31 - - -
16/02:00pm - - - - - W 39 50 21 27 - - -
16/01:30pm - - - - - WNW 41 56 22 30 - - -
16/01:00pm - - - - - WNW 41 50 22 27 - - -
16/12:30pm - - - - - WNW 33 50 18 27 - - -
16/12:08pm - - - - - WNW 30 50 16 27 - - -
16/12:00pm - - - - - WNW 33 44 18 24 - - -
16/11:30am - - - - - WNW 35 46 19 25 - - -
16/11:29am - - - - - WNW 35 46 19 25 - - -
16/11:10am - - - - - W 41 61 22 33 - - -
16/11:00am - - - - - WSW 39 48 21 26 - - -
16/10:53am - - - - - W 37 46 20 25 - - -
16/10:30am - - - - - WNW 32 39 17 21 - - -
16/10:00am - - - - - W 26 33 14 18 - - -
16/09:30am - - - - - W 37 50 20 27 - - -
16/09:00am - - - - - W 41 48 22 26 - - -
16/08:30am - - - - - W 41 54 22 29 - - -
16/08:23am - - - - - WNW 35 46 19 25 - - -
16/08:00am - - - - - WNW 32 39 17 21 - - -
16/07:30am - - - - - WNW 32 37 17 20 - - -
16/07:00am - - - - - WNW 32 37 17 20 - - -
16/06:30am - - - - - W 35 43 19 23 - - -
16/06:00am - - - - - W 37 44 20 24 - - -
16/05:30am - - - - - W 39 46 21 25 - - -
16/05:00am - - - - - WNW 28 37 15 20 - - -
16/04:30am - - - - - WNW 28 32 15 17 - - -
16/04:00am - - - - - WNW 30 35 16 19 - - -
16/03:30am - - - - - WNW 33 41 18 22 - - -
16/03:00am - - - - - WNW 37 50 20 27 - - -
16/02:55am - - - - - NW 33 46 18 25 - - -
16/02:30am - - - - - NNW 35 41 19 22 - - -
16/02:00am - - - - - NNW 35 41 19 22 - - -
16/01:30am - - - - - N 28 39 15 21 - - -
16/01:13am - - - - - N 28 48 15 26 - - -
16/01:00am - - - - - N 28 41 15 22 - - -
16/12:30am - - - - - N 28 43 15 23 - - -
16/12:00am - - - - - N 28 39 15 21 - - -
 
Date/Time
WST
Temp
°C
App
Temp
°C
Dew
Point
°C
Rel
Hum
%
Delta-T
°C
Wind Press
QNH
hPa
Press
MSL
hPa
Rain since
9am
mm
Dir  Spd
km/h
Gust
km/h
Spd
kts
Gust
kts
15/11:31pm - - - - - NNE 28 50 15 27 - - -
15/11:30pm - - - - - NNE 28 43 15 23 - - -
15/11:00pm - - - - - N 26 41 14 22 - - -
15/10:30pm - - - - - NNE 28 39 15 21 - - -
15/10:00pm - - - - - NNE 24 30 13 16 - - -
15/09:30pm - - - - - NNE 24 32 13 17 - - -
15/09:00pm - - - - - NE 22 32 12 17 - - -
15/08:30pm - - - - - NNE 19 30 10 16 - - -
15/08:00pm - - - - - NNE 15 22 8 12 - - -
15/07:30pm - - - - - N 13 20 7 11 - - -
15/07:00pm - - - - - NE 13 17 7 9 - - -
15/06:30pm - - - - - NNE 17 24 9 13 - - -
15/06:00pm - - - - - NE 9 11 5 6 - - -
15/05:30pm - - - - - NNW 2 7 1 4 - - -
15/05:00pm - - - - - NW 2 11 1 6 - - -
15/04:30pm - - - - - CALM 0 0 0 0 - - -
15/04:00pm - - - - - CALM 0 4 0 2 - - -
15/03:30pm - - - - - NNW 9 13 5 7 - - -
15/03:00pm - - - - - NNW 11 13 6 7 - - -
15/02:30pm - - - - - NW 19 24 10 13 - - -
15/02:00pm - - - - - NW 22 26 12 14 - - -
15/01:30pm - - - - - NW 24 30 13 16 - - -
15/01:00pm - - - - - NW 26 32 14 17 - - -
15/12:30pm - - - - - NNW 30 35 16 19 - - -
15/12:00pm - - - - - N 24 37 13 20 - - -
15/11:30am - - - - - N 24 37 13 20 - - -
15/11:00am - - - - - NNE 28 39 15 21 - - -
15/10:30am - - - - - NE 24 33 13 18 - - -
15/10:00am - - - - - NNE 22 32 12 17 - - -
15/09:30am - - - - - NNE 24 33 13 18 - - -
15/09:00am - - - - - NE 26 35 14 19 - - -
15/08:30am - - - - - NE 28 35 15 19 - - -
15/08:00am - - - - - NE 26 35 14 19 - - -
15/07:30am - - - - - NE 28 35 15 19 - - -
15/07:00am - - - - - NE 24 32 13 17 - - -
15/06:30am - - - - - NE 26 33 14 18 - - -
15/06:00am - - - - - NE 24 32 13 17 - - -
15/05:30am - - - - - NE 24 30 13 16 - - -
15/05:00am - - - - - NE 20 30 11 16 - - -
15/04:30am - - - - - NE 24 32 13 17 - - -
15/04:00am - - - - - ENE 24 35 13 19 - - -
15/03:30am - - - - - NE 20 28 11 15 - - -
15/03:00am - - - - - ENE 20 28 11 15 - - -
15/02:30am - - - - - ENE 24 33 13 18 - - -
15/02:00am - - - - - ENE 24 37 13 20 - - -
15/01:30am - - - - - ENE 20 26 11 14 - - -
15/01:00am - - - - - ENE 19 24 10 13 - - -
15/12:30am - - - - - ENE 17 22 9 12 - - -
15/12:00am - - - - - ENE 17 20 9 11 - - -
 
Date/Time
WST
Temp
°C
App
Temp
°C
Dew
Point
°C
Rel
Hum
%
Delta-T
°C
Wind Press
QNH
hPa
Press
MSL
hPa
Rain since
9am
mm
Dir  Spd
km/h
Gust
km/h
Spd
kts
Gust
kts
14/11:30pm - - - - - ENE 17 20 9 11 - - -
14/11:00pm - - - - - ENE 19 24 10 13 - - -
14/10:30pm - - - - - NE 19 26 10 14 - - -
14/10:00pm - - - - - ENE 17 22 9 12 - - -
14/09:30pm - - - - - NE 13 17 7 9 - - -
14/09:00pm - - - - - NE 13 15 7 8 - - -
14/08:30pm - - - - - ENE 13 15 7 8 - - -
14/08:00pm - - - - - ENE 13 15 7 8 - - -
14/07:30pm - - - - - SE 9 9 5 5 - - -
14/07:00pm - - - - - SE 9 9 5 5 - - -
14/06:30pm - - - - - SE 9 9 5 5 - - -
14/06:00pm - - - - - SSE 7 9 4 5 - - -
14/05:30pm - - - - - S 9 11 5 6 - - -
14/05:00pm - - - - - SW 9 11 5 6 - - -
14/04:30pm - - - - - SSW 9 11 5 6 - - -
14/04:00pm - - - - - SSW 7 9 4 5 - - -
14/03:30pm - - - - - WSW 11 13 6 7 - - -
14/03:00pm - - - - - WSW 11 11 6 6 - - -
14/02:30pm - - - - - WSW 11 11 6 6 - - -
14/02:00pm - - - - - WSW 7 9 4 5 - - -
14/01:30pm - - - - - SW 9 11 5 6 - - -
14/01:00pm - - - - - W 9 11 5 6 - - -
14/12:30pm - - - - - NNE 11 15 6 8 - - -
14/12:00pm - - - - - NE 9 17 5 9 - - -
14/11:30am - - - - - NNE 9 15 5 8 - - -
14/11:00am - - - - - NNE 13 17 7 9 - - -
14/10:30am - - - - - N 15 19 8 10 - - -
14/10:00am - - - - - NE 11 15 6 8 - - -
14/09:30am - - - - - NE 13 19 7 10 - - -
14/09:00am - - - - - ENE 15 17 8 9 - - -
14/08:30am - - - - - ENE 15 19 8 10 - - -
14/08:00am - - - - - ENE 15 19 8 10 - - -
14/07:30am - - - - - ENE 17 22 9 12 - - -
14/07:00am - - - - - SSE 9 17 5 9 - - -
14/06:30am - - - - - SW 19 20 10 11 - - -
14/06:00am - - - - - WSW 15 19 8 10 - - -
14/05:30am - - - - - WSW 19 22 10 12 - - -
14/05:00am - - - - - WSW 19 24 10 13 - - -
14/04:30am - - - - - WSW 17 20 9 11 - - -
14/04:00am - - - - - WSW 19 24 10 13 - - -
14/03:30am - - - - - WSW 24 30 13 16 - - -
14/03:00am - - - - - WSW 26 32 14 17 - - -
14/02:30am - - - - - WSW 26 32 14 17 - - -
14/02:00am - - - - - WSW 22 28 12 15 - - -
14/01:30am - - - - - WSW 22 28 12 15 - - -
14/01:00am - - - - - WSW 24 30 13 16 - - -
14/12:30am - - - - - WSW 30 35 16 19 - - -
14/12:00am - - - - - WSW 30 35 16 19 - - -
 
Date/Time
WST
Temp
°C
App
Temp
°C
Dew
Point
°C
Rel
Hum
%
Delta-T
°C
Wind Press
QNH
hPa
Press
MSL
hPa
Rain since
9am
mm
Dir  Spd
km/h
Gust
km/h
Spd
kts
Gust
kts
13/11:30pm - - - - - WSW 33 41 18 22 - - -
13/11:00pm - - - - - W 33 39 18 21 - - -
13/10:30pm - - - - - WSW 33 41 18 22 - - -
13/10:00pm - - - - - WSW 39 50 21 27 - - -
13/09:30pm - - - - - WSW 37 50 20 27 - - -
13/09:00pm - - - - - WSW 43 54 23 29 - - -
13/08:30pm - - - - - WSW 44 54 24 29 - - -
13/08:00pm - - - - - W 48 61 26 33 - - -
13/07:30pm - - - - - W 52 63 28 34 - - -
13/07:19pm - - - - - W 52 61 28 33 - - -
13/07:00pm - - - - - WNW 41 52 22 28 - - -
13/06:43pm - - - - - WNW 39 57 21 31 - - -
13/06:30pm - - - - - W 33 50 18 27 - - -
13/06:11pm - - - - - WNW 35 61 19 33 - - -
13/06:00pm - - - - - WNW 39 50 21 27 - - -
13/05:42pm - - - - - WNW 54 74 29 40 - - -
13/05:30pm - - - - - WNW 54 69 29 37 - - -
13/05:00pm - - - - - NW 44 56 24 30 - - -
13/04:30pm - - - - - WNW 46 78 25 42 - - -
13/04:09pm - - - - - WNW 44 74 24 40 - - -
13/04:00pm - - - - - WNW 48 61 26 33 - - -

Latest Capital City Observations: Canberra | Sydney | Melbourne | Brisbane | Adelaide | Perth | Hobart | Darwin

Other formats

Comma delimited format used in spreadsheet applications
http://www.bom.gov.au/fwo/IDW60901/IDW60901.94607.axf

JavaScript Object Notation format (JSON) in row-major order
http://www.bom.gov.au/fwo/IDW60901/IDW60901.94607.json

Data quality

Most of these data are generated automatically and are frequently updated. Quality checks on data are not normally performed. It is possible for incorrect values to appear. Refer to information at About Latest Weather Observations and please check the disclaimer before using these data.